Time;durP1;ratioP1;P1;durP2;ratioP2;P2;SDS_P1;SDS_P2;PMS_P1;PMS_P2;Temp;Humidity;BMP_temperature;BMP_pressure;BME280_temperature;BME280_humidity;BME280_pressure;Samples;Min_cycle;Max_cycle;Signal;HPM_P1;HPM_P2
2023/11/03 00:00:34;;;;;;;2.28;0.40;;;15.40;80.40;;;;;;4931954;29;20055;-85
2023/11/03 00:03:05;;;;;;;2.13;0.30;;;15.40;80.40;;;;;;4932698;29;20039;-85
2023/11/03 00:05:38;;;;;;;2.83;0.50;;;15.30;80.50;;;;;;4932131;29;20051;-85
2023/11/03 00:08:08;;;;;;;3.03;0.40;;;15.30;80.70;;;;;;4933002;29;20158;-85
2023/11/03 00:10:37;;;;;;;2.53;0.50;;;15.30;81.10;;;;;;4913071;29;20056;-85
2023/11/03 00:13:05;;;;;;;2.10;0.43;;;15.30;81.10;;;;;;4932125;29;20043;-85
2023/11/03 00:15:34;;;;;;;3.47;0.65;;;15.30;81.10;;;;;;4933522;29;20044;-85
2023/11/03 00:18:02;;;;;;;2.05;0.40;;;15.30;81.20;;;;;;4931701;29;20051;-85
2023/11/03 00:20:30;;;;;;;5.43;0.32;;;15.30;81.40;;;;;;4931234;29;20131;-84
2023/11/03 00:22:58;;;;;;;2.55;0.38;;;15.30;81.30;;;;;;4932891;29;20044;-85
2023/11/03 00:25:27;;;;;;;3.28;0.77;;;15.30;81.50;;;;;;4932378;29;20125;-85
2023/11/03 00:27:56;;;;;;;3.58;0.50;;;15.20;81.80;;;;;;4931137;29;20532;-84
2023/11/03 00:30:24;;;;;;;2.65;0.28;;;15.20;82.20;;;;;;4931185;29;20059;-84
2023/11/03 00:32:52;;;;;;;3.28;0.45;;;15.20;82.20;;;;;;4915447;29;20055;-85
2023/11/03 00:35:20;;;;;;;4.70;0.50;;;15.30;82.20;;;;;;4931212;29;20078;-83
2023/11/03 00:37:49;;;;;;;0.93;0.17;;;15.30;82.30;;;;;;4915596;29;20094;-85
2023/11/03 00:40:18;;;;;;;2.38;0.43;;;15.30;82.40;;;;;;4912375;29;20124;-84
2023/11/03 00:42:47;;;;;;;1.77;0.40;;;15.30;82.50;;;;;;4930686;29;20111;-84
2023/11/03 00:45:15;;;;;;;1.85;0.30;;;15.30;82.50;;;;;;4932412;29;20071;-83
2023/11/03 00:47:43;;;;;;;2.53;0.52;;;15.20;82.60;;;;;;4939776;29;20119;-84
2023/11/03 00:50:12;;;;;;;2.92;0.40;;;15.20;82.90;;;;;;4911929;29;20794;-84
2023/11/03 00:52:40;;;;;;;2.42;0.32;;;15.20;82.90;;;;;;4930685;29;20139;-84
2023/11/03 00:55:08;;;;;;;2.47;0.40;;;15.10;83.30;;;;;;4940412;29;20047;-84
2023/11/03 00:57:37;;;;;;;0.40;0.10;;;15.00;83.90;;;;;;4926176;28;20122;-83
2023/11/03 01:00:12;;;;;;;3.05;0.30;;;15.00;84.20;;;;;;4951417;28;20489;-85
2023/11/03 01:02:43;;;;;;;0.73;0.20;;;14.90;84.80;;;;;;4934139;29;20588;-83
2023/11/03 01:05:14;;;;;;;1.38;0.25;;;14.80;85.30;;;;;;4914965;29;20151;-83
2023/11/03 01:07:42;;;;;;;3.20;0.60;;;14.70;86.10;;;;;;4933727;29;20047;-84
2023/11/03 01:10:15;;;;;;;2.30;0.30;;;14.70;86.40;;;;;;4933755;28;20102;-84
2023/11/03 01:12:45;;;;;;;5.40;0.50;;;14.70;86.50;;;;;;4945699;28;20047;-85
2023/11/03 01:15:15;;;;;;;4.93;0.80;;;14.70;86.40;;;;;;4914531;29;20094;-86
2023/11/03 01:17:43;;;;;;;2.35;0.20;;;14.70;86.30;;;;;;4928325;29;20085;-86
2023/11/03 01:20:19;;;;;;;2.30;0.30;;;14.70;86.30;;;;;;4917840;29;20047;-86
2023/11/03 01:22:50;;;;;;;3.97;0.32;;;14.80;86.20;;;;;;4934116;29;20071;-86
2023/11/03 01:25:18;;;;;;;3.38;0.45;;;14.70;86.60;;;;;;4950905;29;20050;-85
2023/11/03 01:27:46;;;;;;;3.28;0.50;;;14.70;86.80;;;;;;4918010;29;20548;-87
2023/11/03 01:30:17;;;;;;;3.50;0.35;;;14.70;87.40;;;;;;4933996;29;20043;-86
2023/11/03 01:32:45;;;;;;;2.05;0.30;;;14.70;87.60;;;;;;4933826;29;20047;-86
2023/11/03 01:35:13;;;;;;;4.63;0.68;;;14.70;87.90;;;;;;4917393;29;20043;-88
2023/11/03 01:37:45;;;;;;;5.65;0.73;;;14.80;88.30;;;;;;4959247;28;20054;-87
2023/11/03 01:40:14;;;;;;;5.43;0.50;;;14.80;89.00;;;;;;4918135;29;20074;-87
2023/11/03 01:42:43;;;;;;;3.10;0.40;;;14.80;90.00;;;;;;4950434;29;20054;-87
2023/11/03 01:45:11;;;;;;;2.10;0.32;;;14.80;91.20;;;;;;4950124;29;20517;-87
2023/11/03 01:47:40;;;;;;;3.25;0.43;;;14.80;92.00;;;;;;4917296;29;20059;-87
2023/11/03 01:50:10;;;;;;;3.83;0.57;;;14.80;92.60;;;;;;4933599;29;20122;-87
2023/11/03 01:52:39;;;;;;;5.65;1.10;;;14.80;92.80;;;;;;4918301;29;20047;-88
2023/11/03 01:55:08;;;;;;;6.40;0.70;;;14.80;93.80;;;;;;4933230;29;20061;-88
2023/11/03 01:57:37;;;;;;;4.32;0.68;;;14.80;94.20;;;;;;4933513;28;20053;-87
2023/11/03 02:00:07;;;;;;;5.10;1.08;;;14.70;96.10;;;;;;4917577;29;20551;-87
2023/11/03 02:02:35;;;;;;;4.82;1.25;;;14.80;96.70;;;;;;4933327;29;20134;-88
2023/11/03 02:05:06;;;;;;;7.18;1.25;;;14.70;96.70;;;;;;4950123;29;20047;-88
2023/11/03 02:07:34;;;;;;;8.13;1.70;;;14.80;96.70;;;;;;4933500;29;20085;-87
2023/11/03 02:10:06;;;;;;;8.27;1.63;;;14.80;96.70;;;;;;4933160;29;20057;-86
2023/11/03 02:12:35;;;;;;;9.15;2.17;;;14.80;96.70;;;;;;4950856;28;20046;-86
2023/11/03 02:15:06;;;;;;;11.27;1.80;;;14.80;96.70;;;;;;4950547;29;20043;-87
2023/11/03 02:17:36;;;;;;;14.23;2.13;;;14.80;96.70;;;;;;4932786;29;20150;-87
2023/11/03 02:20:07;;;;;;;10.05;1.73;;;14.80;96.70;;;;;;4931014;29;20043;-87
2023/11/03 02:22:35;;;;;;;14.27;2.30;;;14.80;96.70;;;;;;4932939;29;20051;-86
2023/11/03 02:25:05;;;;;;;10.27;1.52;;;14.80;96.70;;;;;;4933924;28;20043;-87
2023/11/03 02:27:33;;;;;;;9.68;1.98;;;14.80;96.70;;;;;;4922103;28;20053;-86
2023/11/03 02:30:01;;;;;;;11.60;2.10;;;14.80;96.70;;;;;;4936485;29;20511;-86
2023/11/03 02:32:29;;;;;;;10.90;1.80;;;14.80;96.70;;;;;;4925881;29;20099;-87
2023/11/03 02:34:56;;;;;;;12.50;2.00;;;14.80;96.70;;;;;;4950056;29;20055;-85
2023/11/03 02:37:25;;;;;;;7.60;1.88;;;14.80;96.70;;;;;;4924765;29;20122;-85
2023/11/03 02:39:53;;;;;;;11.98;2.72;;;14.80;96.70;;;;;;4933314;29;20045;-86
2023/11/03 02:42:22;;;;;;;11.63;1.70;;;14.70;96.70;;;;;;4916840;29;20055;-85
2023/11/03 02:44:50;;;;;;;12.10;1.95;;;14.70;96.70;;;;;;4932881;29;20070;-84
2023/11/03 02:47:17;;;;;;;12.95;1.88;;;14.70;96.70;;;;;;4933723;29;20043;-85
2023/11/03 02:49:45;;;;;;;13.82;2.00;;;14.70;96.70;;;;;;4920299;28;20039;-85
2023/11/03 02:52:13;;;;;;;10.35;2.00;;;14.70;96.70;;;;;;4938177;28;20051;-85
2023/11/03 02:54:40;;;;;;;10.15;1.60;;;14.60;96.70;;;;;;4942266;29;20059;-84
2023/11/03 02:57:08;;;;;;;9.35;1.73;;;14.70;96.70;;;;;;4935827;29;20047;-85
2023/11/03 02:59:37;;;;;;;11.85;1.75;;;14.60;96.70;;;;;;4936203;29;20513;-84
2023/11/03 03:02:09;;;;;;;10.40;1.88;;;14.60;96.70;;;;;;4935797;29;20558;-84
2023/11/03 03:04:37;;;;;;;7.53;1.52;;;14.60;96.70;;;;;;4927656;28;20062;-81
2023/11/03 03:07:04;;;;;;;8.85;1.55;;;14.50;96.70;;;;;;4930716;28;20046;-82
2023/11/03 03:09:32;;;;;;;11.43;2.42;;;14.50;96.70;;;;;;4957976;28;20055;-84
2023/11/03 03:12:00;;;;;;;10.25;1.92;;;14.50;96.70;;;;;;4935615;29;20102;-83
2023/11/03 03:14:28;;;;;;;16.45;2.63;;;14.40;96.70;;;;;;4935062;29;20417;-82
2023/11/03 03:16:58;;;;;;;12.00;1.88;;;14.50;96.70;;;;;;4934702;29;20082;-82
2023/11/03 03:19:26;;;;;;;11.35;2.28;;;14.40;96.70;;;;;;4919346;29;20644;-83
2023/11/03 03:21:53;;;;;;;10.32;1.75;;;14.40;96.70;;;;;;4934341;29;20054;-83
2023/11/03 03:24:21;;;;;;;8.43;1.35;;;14.40;96.70;;;;;;4951936;29;20051;-81
2023/11/03 03:26:49;;;;;;;7.15;1.65;;;14.40;96.70;;;;;;4935014;29;20047;-83
2023/11/03 03:29:17;;;;;;;10.32;1.30;;;14.40;96.70;;;;;;4935074;29;20600;-83
2023/11/03 03:31:44;;;;;;;7.28;1.27;;;14.30;96.70;;;;;;4935087;29;20535;-84
2023/11/03 03:34:13;;;;;;;8.07;1.65;;;14.40;96.70;;;;;;4935108;29;20862;-82
2023/11/03 03:36:41;;;;;;;17.73;2.50;;;14.40;96.70;;;;;;4914669;29;20075;-82
2023/11/03 03:39:09;;;;;;;12.65;1.52;;;14.40;96.70;;;;;;4934590;29;20598;-82
2023/11/03 03:41:37;;;;;;;5.82;1.27;;;14.50;96.70;;;;;;4927691;29;20054;-83
2023/11/03 03:44:05;;;;;;;6.13;1.05;;;14.60;96.70;;;;;;4933999;29;20114;-86
2023/11/03 03:46:36;;;;;;;10.05;1.38;;;14.70;96.70;;;;;;4949197;29;20047;-82
2023/11/03 03:49:05;;;;;;;11.18;1.45;;;14.70;96.70;;;;;;4934668;29;20753;-82
2023/11/03 03:51:34;;;;;;;8.23;1.60;;;14.70;96.70;;;;;;4918587;29;20134;-82
2023/11/03 03:54:03;;;;;;;7.68;1.20;;;14.70;96.70;;;;;;4951226;29;20047;-82
2023/11/03 03:56:30;;;;;;;7.43;1.08;;;14.90;96.70;;;;;;4914751;29;20054;-83
2023/11/03 03:58:58;;;;;;;7.20;1.23;;;14.90;96.70;;;;;;4934009;28;20051;-82
2023/11/03 04:01:26;;;;;;;8.95;1.38;;;14.90;96.70;;;;;;4934059;29;20096;-84
2023/11/03 04:03:53;;;;;;;11.48;1.98;;;14.90;96.70;;;;;;4927093;29;20509;-81
2023/11/03 04:06:21;;;;;;;7.00;1.58;;;15.00;96.70;;;;;;4933235;29;20134;-82
2023/11/03 04:08:52;;;;;;;9.65;1.45;;;15.00;96.70;;;;;;4950402;29;20050;-82
2023/11/03 04:11:19;;;;;;;7.82;1.38;;;15.00;96.70;;;;;;4950559;29;20400;-82
2023/11/03 04:13:48;;;;;;;8.75;1.35;;;14.90;96.70;;;;;;4918053;28;20453;-83
2023/11/03 04:16:40;;;;;;;12.45;1.88;;;14.80;96.70;;;;;;4934279;29;20501;-81
2023/11/03 04:19:08;;;;;;;13.00;1.40;;;14.80;96.70;;;;;;4951478;28;20572;-82
2023/11/03 04:21:36;;;;;;;11.65;1.50;;;14.80;96.70;;;;;;4950374;29;20046;-83
2023/11/03 04:24:06;;;;;;;8.80;1.83;;;14.80;96.70;;;;;;4950732;29;20058;-82
2023/11/03 04:26:34;;;;;;;9.48;1.95;;;14.80;96.70;;;;;;4933478;29;20723;-81
2023/11/03 04:29:01;;;;;;;6.45;1.30;;;14.80;96.70;;;;;;4950497;29;20116;-82
2023/11/03 04:31:29;;;;;;;7.75;1.35;;;14.70;96.70;;;;;;4918286;29;20402;-83
2023/11/03 04:33:57;;;;;;;8.00;1.10;;;14.60;96.70;;;;;;4932231;29;20039;-81
2023/11/03 04:36:25;;;;;;;8.63;1.85;;;14.70;96.70;;;;;;4949701;29;20071;-83
2023/11/03 04:38:52;;;;;;;8.38;1.48;;;14.80;96.70;;;;;;4916744;29;20057;-84
2023/11/03 04:41:22;;;;;;;10.65;1.95;;;14.80;96.70;;;;;;4949613;29;20480;-83
2023/11/03 04:43:49;;;;;;;17.13;1.60;;;14.70;96.70;;;;;;4949734;29;20130;-82
2023/11/03 04:46:17;;;;;;;13.30;2.28;;;14.80;96.70;;;;;;4940337;29;20516;-81
2023/11/03 04:48:45;;;;;;;8.93;1.23;;;14.90;96.70;;;;;;4950135;28;20507;-82
2023/11/03 04:51:13;;;;;;;9.60;1.70;;;14.90;96.70;;;;;;4938953;28;20501;-81
2023/11/03 04:53:43;;;;;;;10.93;1.45;;;14.90;96.70;;;;;;4919264;29;20472;-82
2023/11/03 04:56:10;;;;;;;10.05;1.70;;;15.00;96.70;;;;;;4945490;28;20061;-82
2023/11/03 04:58:39;;;;;;;11.88;1.75;;;14.90;96.70;;;;;;4914930;29;20052;-82
2023/11/03 05:01:07;;;;;;;12.38;1.85;;;14.80;96.70;;;;;;4933273;28;20094;-81
2023/11/03 05:03:35;;;;;;;11.27;1.85;;;14.90;96.70;;;;;;4915912;28;20520;-81
2023/11/03 05:06:03;;;;;;;13.85;1.83;;;15.00;96.70;;;;;;4949334;29;20055;-81
2023/11/03 05:08:31;;;;;;;16.58;2.47;;;15.00;96.70;;;;;;4931214;29;20498;-81
2023/11/03 05:11:00;;;;;;;10.35;2.22;;;15.00;96.70;;;;;;4936658;28;20070;-82
2023/11/03 05:13:27;;;;;;;11.63;2.35;;;15.10;96.70;;;;;;4925305;28;20039;-82
2023/11/03 05:15:56;;;;;;;10.32;1.90;;;15.10;96.70;;;;;;4915573;29;20054;-82
2023/11/03 05:18:24;;;;;;;12.45;1.80;;;15.10;96.70;;;;;;4931087;29;20058;-80
2023/11/03 05:20:52;;;;;;;12.93;2.03;;;15.10;96.70;;;;;;4912756;29;20062;-82
2023/11/03 05:23:20;;;;;;;10.52;2.40;;;15.10;96.70;;;;;;4944642;29;20544;-81
2023/11/03 05:25:48;;;;;;;12.50;2.00;;;15.20;96.70;;;;;;4937589;28;20055;-82
2023/11/03 05:28:15;;;;;;;11.15;2.20;;;15.20;96.70;;;;;;4932486;29;20228;-83
2023/11/03 05:30:44;;;;;;;13.02;2.20;;;15.20;96.70;;;;;;4947161;29;20071;-79
2023/11/03 05:33:15;;;;;;;9.48;1.90;;;15.20;96.70;;;;;;4948031;29;20098;-81
2023/11/03 05:35:44;;;;;;;11.68;1.90;;;15.20;96.70;;;;;;4929383;29;20705;-81
2023/11/03 05:38:12;;;;;;;13.23;2.13;;;15.20;96.70;;;;;;4930564;29;20051;-82
2023/11/03 05:40:40;;;;;;;13.13;2.95;;;15.20;96.70;;;;;;4911857;29;20051;-84
2023/11/03 05:43:08;;;;;;;15.35;2.38;;;15.20;96.70;;;;;;4930753;29;20134;-81
2023/11/03 05:45:36;;;;;;;11.35;2.08;;;15.10;96.70;;;;;;4933191;28;20051;-79
2023/11/03 05:48:04;;;;;;;12.23;2.38;;;15.10;96.70;;;;;;4920908;29;20054;-80
2023/11/03 05:50:33;;;;;;;10.02;1.83;;;15.10;96.70;;;;;;4930198;29;20055;-81
2023/11/03 05:53:01;;;;;;;8.50;1.90;;;15.10;96.70;;;;;;4931045;29;20045;-80
2023/11/03 05:55:29;;;;;;;16.38;2.35;;;15.10;96.70;;;;;;4926607;29;20059;-79
2023/11/03 05:57:56;;;;;;;15.13;2.83;;;15.00;96.70;;;;;;4928361;29;20035;-82
2023/11/03 06:00:27;;;;;;;14.45;2.40;;;15.10;96.70;;;;;;4936673;29;20048;-80
2023/11/03 06:02:55;;;;;;;12.32;2.30;;;15.00;96.70;;;;;;4927851;29;20051;-83
2023/11/03 06:05:23;;;;;;;8.80;2.13;;;15.00;96.70;;;;;;4909553;29;20075;-81
2023/11/03 06:07:52;;;;;;;16.88;2.17;;;15.00;96.70;;;;;;4933707;29;20469;-81
2023/11/03 06:10:20;;;;;;;12.77;1.88;;;15.00;96.70;;;;;;4928653;29;20054;-81
2023/11/03 06:12:47;;;;;;;11.32;2.50;;;15.00;96.70;;;;;;4934218;29;20051;-81
2023/11/03 06:15:15;;;;;;;14.15;2.33;;;14.90;96.70;;;;;;4928974;29;20052;-82
2023/11/03 06:17:43;;;;;;;14.52;2.67;;;14.80;96.70;;;;;;4928750;29;20051;-81
2023/11/03 06:20:11;;;;;;;11.90;2.25;;;14.80;96.70;;;;;;4934296;29;20048;-81
2023/11/03 06:22:39;;;;;;;14.82;2.28;;;14.80;96.70;;;;;;4926916;29;20055;-81
2023/11/03 06:25:09;;;;;;;11.77;3.17;;;14.90;96.70;;;;;;4937159;29;20129;-81
2023/11/03 06:27:36;;;;;;;14.98;2.28;;;14.90;96.70;;;;;;4931074;29;20701;-82
2023/11/03 06:30:06;;;;;;;12.88;2.13;;;14.80;96.70;;;;;;4927121;29;20043;-82
2023/11/03 06:32:34;;;;;;;12.50;2.30;;;14.80;96.70;;;;;;4926738;29;20046;-80
2023/11/03 06:35:03;;;;;;;11.00;2.13;;;14.80;96.70;;;;;;4928825;29;20044;-83
2023/11/03 06:37:31;;;;;;;9.82;2.03;;;14.90;96.70;;;;;;4930207;29;20506;-82
2023/11/03 06:40:19;;;;;;;13.15;1.92;;;15.00;96.70;;;;;;4927293;29;21082;-80
2023/11/03 06:42:47;;;;;;;12.85;2.30;;;15.00;96.70;;;;;;4927283;29;20059;-82
2023/11/03 06:45:16;;;;;;;12.00;2.05;;;15.00;96.70;;;;;;4928716;29;20221;-81
2023/11/03 06:47:45;;;;;;;9.55;2.08;;;15.10;96.70;;;;;;4926985;29;20051;-83
2023/11/03 06:50:13;;;;;;;8.45;2.05;;;15.00;96.70;;;;;;4911440;29;20044;-82
2023/11/03 06:52:41;;;;;;;8.15;1.95;;;15.00;96.70;;;;;;4935240;29;20596;-82
2023/11/03 06:55:09;;;;;;;10.38;1.42;;;15.00;96.70;;;;;;4926836;29;20103;-83
2023/11/03 06:57:41;;;;;;;11.00;2.05;;;15.10;96.70;;;;;;4929785;29;20110;-85
2023/11/03 07:00:12;;;;;;;9.88;2.00;;;15.20;96.70;;;;;;4929174;29;20071;-88
2023/11/03 07:02:41;;;;;;;7.80;1.75;;;15.20;96.70;;;;;;4928637;29;20051;-84
2023/11/03 07:05:09;;;;;;;7.93;1.30;;;15.20;96.70;;;;;;4929045;29;20044;-84
2023/11/03 07:07:37;;;;;;;6.20;1.35;;;15.30;96.70;;;;;;4928914;29;20591;-82
2023/11/03 07:10:06;;;;;;;10.20;2.20;;;15.20;96.70;;;;;;4929126;29;20040;-85
2023/11/03 07:12:34;;;;;;;6.60;1.45;;;15.30;96.70;;;;;;4909979;29;20052;-85
2023/11/03 07:15:06;;;;;;;10.23;2.20;;;15.40;96.70;;;;;;4922533;29;20068;-88
2023/11/03 07:17:34;;;;;;;10.25;2.22;;;15.40;96.70;;;;;;4912349;29;20667;-83
2023/11/03 07:20:05;;;;;;;8.02;1.73;;;15.40;96.70;;;;;;4929646;29;20099;-82
2023/11/03 07:22:34;;;;;;;8.02;1.85;;;15.50;96.70;;;;;;4933936;29;20127;-81
2023/11/03 07:25:02;;;;;;;15.98;2.05;;;15.60;96.70;;;;;;4926307;29;20136;-80
2023/11/03 07:27:30;;;;;;;12.02;1.75;;;15.70;96.70;;;;;;4928749;29;20134;-84
2023/11/03 07:29:58;;;;;;;9.52;1.83;;;15.70;96.70;;;;;;4931475;29;20095;-81
2023/11/03 07:32:27;;;;;;;15.43;2.78;;;15.60;96.70;;;;;;4912287;29;20387;-82
2023/11/03 07:34:57;;;;;;;13.80;1.95;;;15.60;96.70;;;;;;4938935;29;20413;-80
2023/11/03 07:37:26;;;;;;;11.35;1.83;;;15.60;96.70;;;;;;4932083;29;20586;-79
2023/11/03 07:39:54;;;;;;;16.15;2.20;;;15.60;96.70;;;;;;4929492;29;20052;-81
2023/11/03 07:42:21;;;;;;;12.35;2.95;;;15.70;96.70;;;;;;4930018;29;20047;-80
2023/11/03 07:44:50;;;;;;;12.57;3.22;;;15.70;96.70;;;;;;4929928;29;20044;-81
2023/11/03 07:47:18;;;;;;;10.50;1.85;;;15.80;96.70;;;;;;4915389;29;20055;-83
2023/11/03 07:49:47;;;;;;;11.30;2.05;;;15.80;96.70;;;;;;4930887;29;20178;-85
2023/11/03 07:52:15;;;;;;;15.98;2.55;;;15.80;96.70;;;;;;4939155;29;20047;-85
2023/11/03 07:54:44;;;;;;;12.63;2.45;;;15.80;96.70;;;;;;4926672;29;20566;-86
2023/11/03 07:57:12;;;;;;;15.63;2.65;;;15.80;96.70;;;;;;4930793;29;20052;-84
2023/11/03 07:59:41;;;;;;;15.27;2.70;;;15.80;96.70;;;;;;4911305;29;20056;-82
2023/11/03 08:02:10;;;;;;;15.68;2.72;;;15.80;96.70;;;;;;4930332;29;20050;-82
2023/11/03 08:04:59;;;;;;;13.93;2.40;;;15.90;96.70;;;;;;4937444;29;20062;-83
2023/11/03 08:07:28;;;;;;;17.27;2.92;;;15.90;96.70;;;;;;4929813;29;20079;-82
2023/11/03 08:09:56;;;;;;;19.73;2.80;;;16.00;96.70;;;;;;4930918;29;20067;-81
2023/11/03 08:12:26;;;;;;;21.15;2.60;;;16.10;96.70;;;;;;4939400;29;20478;-83
2023/11/03 08:14:56;;;;;;;9.85;2.80;;;16.10;96.70;;;;;;4930877;29;20103;-79
2023/11/03 08:17:32;;;;;;;11.75;2.30;;;16.20;96.70;;;;;;4928846;29;20133;-79
2023/11/03 08:20:05;;;;;;;12.57;2.67;;;16.20;96.70;;;;;;4910936;29;20496;-81
2023/11/03 08:22:44;;;;;;;18.42;2.90;;;16.30;96.70;;;;;;4930337;29;20047;-82
2023/11/03 08:25:13;;;;;;;12.27;2.13;;;16.40;96.70;;;;;;4929253;29;20039;-81
2023/11/03 08:27:42;;;;;;;11.98;2.10;;;16.50;96.70;;;;;;4921917;29;20130;-87
2023/11/03 08:30:12;;;;;;;11.23;2.22;;;16.50;96.70;;;;;;4938421;29;20078;-83
2023/11/03 08:32:40;;;;;;;13.63;2.05;;;16.50;96.70;;;;;;4931369;29;20051;-80
2023/11/03 08:35:11;;;;;;;12.43;2.60;;;16.50;96.70;;;;;;4930378;29;20682;-83
2023/11/03 08:37:43;;;;;;;9.70;2.67;;;16.60;96.70;;;;;;4937543;29;20556;-80
2023/11/03 08:40:14;;;;;;;12.93;2.67;;;16.70;96.70;;;;;;4906614;29;21486;-83
2023/11/03 08:42:46;;;;;;;10.35;2.53;;;16.80;96.70;;;;;;4929174;29;20069;-82
2023/11/03 08:45:17;;;;;;;12.60;1.98;;;16.80;96.70;;;;;;4917110;29;20076;-84
2023/11/03 08:47:46;;;;;;;14.00;2.40;;;16.80;96.70;;;;;;4930313;29;20048;-84
2023/11/03 08:50:17;;;;;;;12.02;2.08;;;16.80;96.70;;;;;;4914383;29;20055;-84
2023/11/03 08:52:47;;;;;;;7.93;1.70;;;16.80;96.70;;;;;;4929923;29;20139;-82
2023/11/03 08:55:16;;;;;;;9.93;1.88;;;16.80;96.70;;;;;;4929453;29;20150;-81
2023/11/03 08:57:45;;;;;;;9.88;1.88;;;16.80;96.70;;;;;;4931098;29;20046;-84
2023/11/03 09:00:15;;;;;;;10.63;1.75;;;16.90;96.70;;;;;;4929600;29;20054;-79
2023/11/03 09:02:46;;;;;;;11.05;1.75;;;17.00;96.70;;;;;;4928217;29;20048;-84
2023/11/03 09:05:16;;;;;;;8.25;1.50;;;17.10;96.70;;;;;;4920204;29;20147;-83
2023/11/03 09:07:45;;;;;;;12.45;2.08;;;17.20;96.70;;;;;;4932798;29;20051;-79
2023/11/03 09:10:15;;;;;;;11.98;1.67;;;17.20;96.70;;;;;;4934046;28;20522;-80
2023/11/03 09:12:43;;;;;;;13.90;1.65;;;17.10;96.70;;;;;;4937103;29;20102;-79
2023/11/03 09:15:12;;;;;;;8.73;1.70;;;17.10;96.70;;;;;;4928352;29;20067;-80
2023/11/03 09:17:44;;;;;;;9.70;1.83;;;17.20;96.70;;;;;;4928780;29;20058;-82
2023/11/03 09:20:17;;;;;;;13.07;2.28;;;17.20;96.70;;;;;;4938022;29;20062;-81
2023/11/03 09:22:48;;;;;;;9.45;1.60;;;17.20;96.70;;;;;;4945733;29;20050;-80
2023/11/03 09:25:17;;;;;;;8.02;1.50;;;17.30;96.70;;;;;;4936540;29;20567;-81
2023/11/03 09:27:46;;;;;;;9.60;1.88;;;17.20;96.70;;;;;;4921738;29;20051;-80
2023/11/03 09:30:15;;;;;;;7.65;1.40;;;17.20;96.70;;;;;;4927495;29;20409;-80
2023/11/03 09:32:45;;;;;;;6.88;1.58;;;17.20;96.70;;;;;;4911799;29;20051;-81
2023/11/03 09:35:13;;;;;;;7.32;1.60;;;17.30;96.70;;;;;;4911714;29;20078;-79
2023/11/03 09:37:41;;;;;;;9.43;2.10;;;17.40;96.70;;;;;;4928215;29;20576;-80
2023/11/03 09:40:16;;;;;;;7.75;1.10;;;17.40;96.70;;;;;;4929308;29;20151;-80
2023/11/03 09:42:47;;;;;;;9.40;1.80;;;17.40;96.70;;;;;;4940307;29;20197;-80
2023/11/03 09:45:19;;;;;;;11.27;1.30;;;17.40;96.70;;;;;;4936871;29;20458;-78
2023/11/03 09:47:49;;;;;;;9.98;2.17;;;17.50;96.70;;;;;;4937240;29;20066;-80
2023/11/03 09:50:17;;;;;;;8.07;1.40;;;17.50;96.70;;;;;;4928374;29;20162;-82
2023/11/03 09:52:56;;;;;;;11.07;1.58;;;17.60;96.70;;;;;;4927887;29;20138;-85
2023/11/03 09:55:27;;;;;;;10.68;1.48;;;17.70;96.70;;;;;;4935792;28;20138;-82
2023/11/03 09:57:59;;;;;;;7.50;1.58;;;17.70;96.70;;;;;;4956558;28;20095;-81
2023/11/03 10:00:28;;;;;;;9.63;1.63;;;17.70;96.70;;;;;;4956169;28;20051;-82
2023/11/03 10:02:56;;;;;;;15.20;2.28;;;17.80;96.70;;;;;;4957093;28;20110;-82
2023/11/03 10:05:29;;;;;;;7.90;1.40;;;17.80;96.70;;;;;;4951060;28;20047;-77
2023/11/03 10:08:02;;;;;;;10.95;1.40;;;17.80;96.70;;;;;;4939909;28;20042;-81
2023/11/03 10:10:35;;;;;;;8.43;1.67;;;17.90;96.70;;;;;;4948987;28;20058;-83
2023/11/03 10:13:05;;;;;;;10.85;2.13;;;17.90;96.70;;;;;;4929667;29;20043;-78
2023/11/03 10:15:34;;;;;;;13.95;2.20;;;17.80;96.70;;;;;;4929833;29;20596;-82
2023/11/03 10:18:02;;;;;;;9.05;1.52;;;17.90;96.70;;;;;;4947296;29;20047;-80
2023/11/03 10:20:31;;;;;;;7.88;1.42;;;17.90;96.70;;;;;;4930633;29;20418;-83
2023/11/03 10:22:59;;;;;;;7.55;1.92;;;17.90;96.70;;;;;;4929831;29;20062;-80
2023/11/03 10:25:27;;;;;;;9.23;1.95;;;17.90;96.70;;;;;;4933655;28;20035;-82
2023/11/03 10:27:57;;;;;;;6.90;1.95;;;18.00;96.70;;;;;;4928339;28;20135;-81
2023/11/03 10:30:29;;;;;;;9.98;1.98;;;18.10;96.70;;;;;;4933848;29;20043;-81
2023/11/03 10:32:57;;;;;;;7.35;1.50;;;18.10;96.70;;;;;;4952582;28;20386;-80
2023/11/03 10:35:25;;;;;;;13.20;1.73;;;18.10;96.70;;;;;;4961814;28;20600;-79
2023/11/03 10:37:53;;;;;;;6.43;1.52;;;18.00;96.70;;;;;;4915631;29;20478;-90
2023/11/03 10:40:22;;;;;;;9.30;1.58;;;17.90;96.70;;;;;;4939831;28;20043;-86
2023/11/03 10:42:52;;;;;;;8.05;1.58;;;17.90;96.70;;;;;;4937415;29;20055;-79
2023/11/03 10:45:25;;;;;;;9.27;1.92;;;17.90;96.70;;;;;;4930412;29;20043;-79
2023/11/03 10:48:09;;;;;;;7.72;1.20;;;18.00;96.70;;;;;;4946600;28;20548;-79
2023/11/03 10:50:45;;;;;;;8.23;1.58;;;18.00;96.70;;;;;;4906217;29;20129;-79
2023/11/03 10:53:20;;;;;;;6.18;1.30;;;17.90;96.70;;;;;;4941739;29;20072;-80
2023/11/03 10:55:54;;;;;;;5.45;1.23;;;18.10;96.70;;;;;;4931963;29;20067;-78
2023/11/03 10:58:23;;;;;;;7.05;1.30;;;18.20;96.70;;;;;;4925838;29;20533;-79
2023/11/03 11:01:03;;;;;;;9.40;1.50;;;18.20;96.70;;;;;;4937966;29;20063;-78
2023/11/03 11:03:41;;;;;;;6.25;1.30;;;18.20;96.70;;;;;;4931109;28;20105;-80
2023/11/03 11:06:17;;;;;;;7.55;1.08;;;18.30;96.70;;;;;;4925707;29;20146;-80
2023/11/03 11:08:51;;;;;;;5.80;1.27;;;18.40;96.70;;;;;;4935487;28;20936;-79
2023/11/03 11:11:19;;;;;;;6.20;1.33;;;18.40;96.70;;;;;;4929289;29;20059;-82
2023/11/03 11:13:49;;;;;;;7.43;1.83;;;18.30;96.70;;;;;;4930208;29;20475;-78
2023/11/03 11:16:18;;;;;;;9.52;1.55;;;18.20;96.70;;;;;;4939128;29;20523;-78
2023/11/03 11:18:53;;;;;;;6.15;1.30;;;18.10;96.70;;;;;;4938419;29;20055;-78
2023/11/03 11:21:29;;;;;;;9.48;1.10;;;17.90;96.70;;;;;;4940611;29;20079;-78
2023/11/03 11:23:58;;;;;;;5.57;1.45;;;17.70;96.70;;;;;;4942536;29;20054;-78
2023/11/03 11:26:30;;;;;;;7.57;1.10;;;17.70;96.70;;;;;;4929708;29;20047;-79
2023/11/03 11:29:03;;;;;;;9.93;1.30;;;18.00;96.70;;;;;;4945586;29;20087;-78
2023/11/03 11:31:40;;;;;;;3.00;0.77;;;18.20;96.70;;;;;;4930116;29;20044;-78
2023/11/03 11:34:12;;;;;;;5.13;0.95;;;18.30;96.70;;;;;;4930040;29;20044;-80
2023/11/03 11:36:42;;;;;;;4.07;0.90;;;18.50;96.70;;;;;;4943140;29;20047;-79
2023/11/03 11:39:13;;;;;;;5.22;0.98;;;18.40;96.70;;;;;;4937982;29;20193;-79
2023/11/03 11:41:50;;;;;;;5.53;0.70;;;18.40;96.70;;;;;;4939679;29;20048;-79
2023/11/03 11:44:20;;;;;;;4.07;0.73;;;18.50;96.70;;;;;;4934031;29;20051;-76
2023/11/03 11:46:52;;;;;;;5.25;0.60;;;18.50;96.70;;;;;;4945015;29;20044;-80
2023/11/03 11:49:22;;;;;;;6.38;0.90;;;18.60;96.70;;;;;;4929279;29;20429;-77
2023/11/03 11:51:51;;;;;;;3.42;0.77;;;18.70;96.70;;;;;;4912523;29;20055;-80
2023/11/03 11:54:20;;;;;;;5.45;0.77;;;18.60;96.70;;;;;;4928313;29;20055;-81
2023/11/03 11:56:49;;;;;;;4.93;1.27;;;18.60;96.70;;;;;;4924032;29;20062;-79
2023/11/03 11:59:19;;;;;;;2.67;0.63;;;18.50;96.70;;;;;;4910181;29;20052;-78
2023/11/03 12:01:47;;;;;;;6.68;0.80;;;18.60;96.70;;;;;;4900667;29;20092;-80
2023/11/03 12:04:17;;;;;;;4.30;0.93;;;18.70;96.70;;;;;;4910121;29;20055;-79
2023/11/03 12:06:46;;;;;;;5.78;1.33;;;18.70;96.70;;;;;;4909476;29;20056;-78
2023/11/03 12:09:15;;;;;;;7.82;1.10;;;18.40;96.70;;;;;;4912771;29;20510;-78
2023/11/03 12:11:44;;;;;;;3.92;1.13;;;18.10;96.70;;;;;;4893612;29;20056;-81
2023/11/03 12:14:13;;;;;;;5.22;0.80;;;17.90;96.70;;;;;;4908706;29;20044;-80
2023/11/03 12:16:41;;;;;;;6.07;1.38;;;17.80;96.70;;;;;;4903921;29;20048;-81
2023/11/03 12:19:13;;;;;;;5.13;0.90;;;17.70;96.70;;;;;;4893483;29;20140;-80
2023/11/03 12:21:48;;;;;;;8.57;2.58;;;17.60;96.70;;;;;;4914703;29;20052;-80
2023/11/03 12:24:16;;;;;;;8.25;2.05;;;17.60;96.70;;;;;;4909005;29;20051;-80
2023/11/03 12:26:44;;;;;;;6.47;1.58;;;17.50;96.70;;;;;;4925990;29;20596;-80
2023/11/03 12:29:29;;;;;;;5.30;1.02;;;17.50;96.70;;;;;;4919174;29;20060;-81
2023/11/03 12:32:31;;;;;;;4.90;0.93;;;17.50;96.70;;;;;;4910136;29;20455;-79
2023/11/03 12:34:59;;;;;;;4.25;0.73;;;17.50;96.70;;;;;;4909149;29;20048;-79
2023/11/03 12:37:28;;;;;;;6.57;1.02;;;17.40;96.70;;;;;;4898707;29;20052;-79
2023/11/03 12:39:56;;;;;;;8.40;1.15;;;17.30;96.70;;;;;;4907247;29;20055;-79
2023/11/03 12:42:27;;;;;;;5.78;0.95;;;17.40;96.70;;;;;;4908815;29;20515;-80
2023/11/03 12:44:59;;;;;;;5.45;1.00;;;17.30;96.70;;;;;;4924337;29;20142;-80
2023/11/03 12:47:38;;;;;;;5.50;1.10;;;17.30;96.70;;;;;;4923452;29;20074;-79
2023/11/03 12:50:16;;;;;;;4.18;0.88;;;17.30;96.70;;;;;;4908530;29;21141;-77
2023/11/03 12:52:49;;;;;;;5.50;1.63;;;17.30;96.70;;;;;;4909451;29;20051;-81
2023/11/03 12:55:22;;;;;;;6.15;0.95;;;17.30;96.70;;;;;;4917114;29;20059;-81